createdAt,value
2022-10-18T00:00:57.087Z,17.10
2022-10-18T00:03:25.676Z,17.10
2022-10-18T00:05:53.633Z,17.10
2022-10-18T00:08:22.159Z,17.10
2022-10-18T00:10:50.341Z,17.10
2022-10-18T00:13:20.262Z,17.10
2022-10-18T00:15:52.202Z,17.10
2022-10-18T00:18:22.832Z,17.10
2022-10-18T00:20:58.903Z,17.10
2022-10-18T00:23:27.492Z,17.10
2022-10-18T00:26:03.992Z,17.10
2022-10-18T00:28:34.090Z,17.00
2022-10-18T00:31:12.105Z,17.00
2022-10-18T00:33:40.522Z,17.00
2022-10-18T00:36:09.003Z,17.00
2022-10-18T00:38:37.939Z,17.00
2022-10-18T00:41:08.100Z,17.10
2022-10-18T00:43:57.220Z,17.10
2022-10-18T00:46:26.805Z,17.00
2022-10-18T00:48:57.148Z,17.00
2022-10-18T00:51:28.675Z,17.00
2022-10-18T00:53:56.718Z,17.00
2022-10-18T00:56:24.790Z,17.00
2022-10-18T00:58:53.449Z,17.00
2022-10-18T01:01:28.273Z,17.00
2022-10-18T01:03:57.686Z,17.00
2022-10-18T01:06:28.618Z,17.10
2022-10-18T01:09:10.994Z,17.10
2022-10-18T01:11:58.625Z,17.10
2022-10-18T01:14:36.748Z,17.10
2022-10-18T01:17:18.124Z,17.10
2022-10-18T01:20:12.911Z,17.10
2022-10-18T01:22:45.693Z,17.00
2022-10-18T01:25:33.520Z,17.00
2022-10-18T01:28:12.442Z,17.00
2022-10-18T01:30:55.833Z,17.00
2022-10-18T01:33:39.220Z,17.00
2022-10-18T01:36:15.153Z,17.10
2022-10-18T01:38:44.522Z,17.10
2022-10-18T01:41:15.809Z,17.10
2022-10-18T01:43:46.583Z,17.20
2022-10-18T01:46:19.890Z,17.20
2022-10-18T01:48:48.639Z,17.10
2022-10-18T01:51:19.451Z,17.10
2022-10-18T01:53:47.429Z,17.10
2022-10-18T01:56:24.688Z,17.10
2022-10-18T01:59:12.080Z,17.10
2022-10-18T02:01:49.329Z,17.10
2022-10-18T02:04:24.941Z,17.10
2022-10-18T02:06:58.466Z,17.10
2022-10-18T02:09:32.907Z,17.10
2022-10-18T02:12:02.137Z,17.10
2022-10-18T02:14:31.729Z,17.10
2022-10-18T02:17:05.581Z,17.10
2022-10-18T02:19:37.330Z,17.10
2022-10-18T02:22:06.430Z,17.00
2022-10-18T02:24:38.673Z,17.00
2022-10-18T02:27:06.730Z,17.00
2022-10-18T02:29:35.492Z,16.90
2022-10-18T02:32:10.356Z,17.00
2022-10-18T02:34:41.967Z,17.00
2022-10-18T02:37:11.642Z,17.00
2022-10-18T02:39:46.228Z,17.00
2022-10-18T02:42:15.722Z,17.00
2022-10-18T02:44:43.670Z,17.00
2022-10-18T02:47:13.561Z,17.00
2022-10-18T02:49:41.675Z,17.00
2022-10-18T02:52:09.743Z,17.00
2022-10-18T02:54:37.736Z,17.00
2022-10-18T02:57:05.779Z,17.10
2022-10-18T02:59:33.853Z,17.10
2022-10-18T03:02:01.809Z,17.10
2022-10-18T03:04:31.190Z,17.00
2022-10-18T03:06:59.153Z,17.00
2022-10-18T03:09:27.193Z,17.10
2022-10-18T03:11:55.147Z,17.10
2022-10-18T03:14:23.130Z,17.10
2022-10-18T03:16:51.125Z,17.10
2022-10-18T03:19:19.251Z,17.00
2022-10-18T03:21:48.576Z,17.10
2022-10-18T03:24:16.884Z,17.00
2022-10-18T03:26:44.890Z,17.10
2022-10-18T03:29:13.137Z,17.10
2022-10-18T03:31:41.134Z,17.10
2022-10-18T03:34:09.102Z,17.10
2022-10-18T03:36:38.542Z,17.10
2022-10-18T03:39:07.890Z,17.10
2022-10-18T03:41:35.858Z,17.10
2022-10-18T03:44:04.047Z,17.10
2022-10-18T03:46:31.975Z,17.10
2022-10-18T03:48:59.987Z,17.00
2022-10-18T03:51:27.991Z,17.00
2022-10-18T03:53:55.968Z,17.00
2022-10-18T03:56:25.333Z,17.00
2022-10-18T03:58:53.338Z,17.00
2022-10-18T04:01:21.360Z,17.00
2022-10-18T04:03:49.346Z,17.00
2022-10-18T04:06:17.308Z,17.00
2022-10-18T04:08:45.267Z,17.00
2022-10-18T04:11:13.264Z,17.00
2022-10-18T04:13:42.670Z,17.00
2022-10-18T04:16:10.579Z,17.00
2022-10-18T04:18:39.603Z,17.00
2022-10-18T04:21:08.891Z,17.00
2022-10-18T04:23:38.759Z,17.00
2022-10-18T04:26:07.479Z,17.00
2022-10-18T04:28:39.877Z,17.00
2022-10-18T04:31:09.554Z,17.00
2022-10-18T04:33:37.563Z,17.00
2022-10-18T04:36:05.943Z,17.00
2022-10-18T04:38:33.928Z,17.00
2022-10-18T04:41:02.086Z,17.00
2022-10-18T04:43:30.087Z,17.00
2022-10-18T04:45:58.058Z,17.00
2022-10-18T04:48:27.341Z,17.00
2022-10-18T04:50:55.305Z,17.10
2022-10-18T04:53:23.301Z,17.10
2022-10-18T04:55:51.550Z,17.10
2022-10-18T04:58:20.104Z,17.10
2022-10-18T05:00:48.495Z,17.00
2022-10-18T05:03:16.870Z,17.00
2022-10-18T05:06:02.679Z,17.00
2022-10-18T05:08:31.702Z,17.00
2022-10-18T05:10:59.987Z,17.00
2022-10-18T05:13:29.343Z,17.00
2022-10-18T05:15:59.368Z,17.00
2022-10-18T05:18:27.579Z,17.00
2022-10-18T05:20:59.313Z,17.00
2022-10-18T05:23:28.487Z,17.00
2022-10-18T05:25:56.498Z,17.00
2022-10-18T05:28:41.179Z,17.00
2022-10-18T05:31:11.576Z,17.00
2022-10-18T05:33:39.633Z,17.00
2022-10-18T05:36:10.073Z,17.10
2022-10-18T05:38:42.204Z,17.00
2022-10-18T05:41:10.516Z,17.10
2022-10-18T05:43:38.592Z,17.10
2022-10-18T05:46:13.700Z,17.10
2022-10-18T05:48:43.222Z,17.10
2022-10-18T05:51:12.775Z,17.10
2022-10-18T05:53:40.871Z,17.10
2022-10-18T05:56:11.634Z,17.10
2022-10-18T05:58:40.474Z,17.10
2022-10-18T06:01:09.833Z,17.10
2022-10-18T06:03:38.304Z,17.20
2022-10-18T06:06:08.304Z,17.10
2022-10-18T06:08:38.440Z,17.10
2022-10-18T06:11:10.226Z,17.10
2022-10-18T06:13:41.784Z,17.10
2022-10-18T06:16:10.365Z,17.10
2022-10-18T06:18:38.674Z,17.10
2022-10-18T06:21:07.238Z,17.10
2022-10-18T06:23:36.893Z,17.10
2022-10-18T06:26:08.004Z,17.10
2022-10-18T06:28:37.081Z,17.20
2022-10-18T06:31:06.258Z,17.20
2022-10-18T06:33:35.925Z,17.20
2022-10-18T06:36:05.716Z,17.20
2022-10-18T06:38:33.917Z,17.20
2022-10-18T06:41:03.496Z,17.20
2022-10-18T06:43:31.748Z,17.20
2022-10-18T06:46:01.733Z,17.10
2022-10-18T06:48:29.985Z,17.20
2022-10-18T06:50:59.753Z,17.20
2022-10-18T06:53:29.874Z,17.10
2022-10-18T06:56:00.779Z,17.10
2022-10-18T06:58:30.812Z,17.10
2022-10-18T07:00:59.259Z,17.10
2022-10-18T07:03:27.284Z,17.10
2022-10-18T07:05:55.284Z,17.10
2022-10-18T07:08:23.251Z,17.10
2022-10-18T07:10:54.585Z,17.20
2022-10-18T07:13:38.081Z,17.10
2022-10-18T07:16:11.711Z,17.20
2022-10-18T07:18:43.910Z,17.20
2022-10-18T07:21:13.642Z,17.20
2022-10-18T07:23:43.694Z,17.20
2022-10-18T07:26:14.506Z,17.30
2022-10-18T07:28:42.824Z,17.30
2022-10-18T07:31:13.338Z,17.30
2022-10-18T07:33:42.949Z,17.30
2022-10-18T07:36:12.698Z,17.30
2022-10-18T07:38:41.248Z,17.30
2022-10-18T07:41:12.082Z,17.30
2022-10-18T07:43:43.468Z,17.20
2022-10-18T07:46:13.350Z,17.20
2022-10-18T07:48:41.710Z,17.30
2022-10-18T07:51:10.508Z,17.30
2022-10-18T07:53:39.274Z,17.30
2022-10-18T07:56:09.786Z,17.40
2022-10-18T07:58:37.888Z,17.40
2022-10-18T08:01:06.898Z,17.50
2022-10-18T08:03:36.592Z,17.40
2022-10-18T08:06:06.057Z,17.50
2022-10-18T08:08:34.079Z,17.50
2022-10-18T08:11:04.070Z,17.50
2022-10-18T08:13:32.286Z,17.40
2022-10-18T08:16:05.003Z,17.40
2022-10-18T08:18:33.055Z,17.40
2022-10-18T08:21:02.876Z,17.40
2022-10-18T08:23:31.255Z,17.40
2022-10-18T08:26:02.575Z,17.40
2022-10-18T08:28:30.696Z,17.40
2022-10-18T08:30:58.800Z,17.40
2022-10-18T08:33:26.825Z,17.30
2022-10-18T08:35:58.229Z,17.40
2022-10-18T08:38:30.957Z,17.40
2022-10-18T08:41:01.050Z,17.40
2022-10-18T08:46:04.557Z,17.40
2022-10-18T08:48:36.470Z,17.40
2022-10-18T08:51:06.069Z,17.40
2022-10-18T08:53:50.101Z,17.40
2022-10-18T08:56:21.638Z,17.40
2022-10-18T08:58:49.855Z,17.40
2022-10-18T09:01:30.016Z,17.50
2022-10-18T09:04:23.727Z,17.40
2022-10-18T09:07:03.891Z,17.40
2022-10-18T09:09:42.767Z,17.40
2022-10-18T09:12:29.650Z,17.40
2022-10-18T09:15:30.914Z,17.30
2022-10-18T09:18:10.276Z,17.40
2022-10-18T09:20:48.878Z,17.40
2022-10-18T09:23:20.900Z,17.40
2022-10-18T09:25:59.118Z,17.40
2022-10-18T09:28:38.848Z,17.40
2022-10-18T09:31:12.935Z,17.40
2022-10-18T09:33:49.184Z,17.50
2022-10-18T09:36:21.723Z,17.40
2022-10-18T09:38:53.773Z,17.40
2022-10-18T09:41:27.729Z,17.40
2022-10-18T09:43:59.159Z,17.40
2022-10-18T09:46:33.227Z,17.40
2022-10-18T09:49:05.319Z,17.40
2022-10-18T09:51:37.254Z,17.40
2022-10-18T09:54:18.279Z,17.50
2022-10-18T09:56:50.879Z,17.40
2022-10-18T09:59:33.371Z,17.40
2022-10-18T10:02:01.503Z,17.50
2022-10-18T10:04:29.920Z,17.40
2022-10-18T10:07:01.519Z,17.50
2022-10-18T10:09:30.880Z,17.50
2022-10-18T10:12:00.371Z,17.50
2022-10-18T10:14:30.690Z,17.60
2022-10-18T10:17:02.383Z,17.60
2022-10-18T10:19:33.309Z,17.50
2022-10-18T10:22:05.099Z,17.60
2022-10-18T10:24:44.184Z,17.60
2022-10-18T10:27:20.088Z,17.50
2022-10-18T10:30:02.757Z,17.60
2022-10-18T10:32:47.362Z,17.60
2022-10-18T10:35:35.525Z,17.70
2022-10-18T10:38:24.405Z,17.80
2022-10-18T10:40:52.921Z,17.80
2022-10-18T10:43:40.604Z,17.80
2022-10-18T10:46:11.248Z,17.80
2022-10-18T10:48:50.423Z,17.80
2022-10-18T10:51:29.744Z,17.80
2022-10-18T10:54:00.933Z,17.80
2022-10-18T10:56:31.355Z,17.90
2022-10-18T10:59:09.399Z,17.90
2022-10-18T11:01:37.517Z,17.90
2022-10-18T11:04:26.779Z,17.90
2022-10-18T11:07:17.968Z,18.00
2022-10-18T11:09:52.229Z,18.10
2022-10-18T11:12:29.884Z,18.20
2022-10-18T11:15:09.961Z,18.30
2022-10-18T11:17:43.783Z,18.40
2022-10-18T11:20:23.178Z,18.50
2022-10-18T11:23:02.641Z,18.70
2022-10-18T11:25:57.033Z,18.80
2022-10-18T11:28:35.638Z,18.70
2022-10-18T11:31:18.751Z,18.80
2022-10-18T11:34:15.581Z,18.80
2022-10-18T11:37:02.255Z,18.90
2022-10-18T11:39:46.956Z,18.90
2022-10-18T11:42:22.241Z,19.00
2022-10-18T11:44:59.540Z,19.10
2022-10-18T11:47:38.117Z,19.10
2022-10-18T11:50:13.689Z,19.10
2022-10-18T11:52:51.580Z,19.00
2022-10-18T11:55:32.841Z,18.90
2022-10-18T11:58:07.962Z,18.90
2022-10-18T12:00:48.942Z,18.90
2022-10-18T12:03:35.613Z,18.80
2022-10-18T12:06:07.199Z,18.80
2022-10-18T12:08:39.778Z,18.70
2022-10-18T12:11:14.436Z,18.60
2022-10-18T12:13:47.689Z,18.60
2022-10-18T12:16:17.461Z,18.50
2022-10-18T12:18:57.527Z,18.60
2022-10-18T12:21:29.303Z,18.70
2022-10-18T12:24:02.257Z,19.00
2022-10-18T12:26:32.337Z,19.30
2022-10-18T12:29:18.101Z,19.60
2022-10-18T12:31:50.332Z,19.70
2022-10-18T12:34:40.195Z,19.90
2022-10-18T12:37:23.357Z,20.00
2022-10-18T12:40:12.395Z,20.10
2022-10-18T12:42:44.699Z,19.90
2022-10-18T12:45:34.971Z,19.60
2022-10-18T12:48:06.618Z,19.40
2022-10-18T12:50:38.535Z,19.20
2022-10-18T12:53:19.153Z,19.00
2022-10-18T12:55:49.319Z,18.90
2022-10-18T12:58:29.629Z,19.00
2022-10-18T13:01:01.224Z,19.00
2022-10-18T13:03:43.089Z,19.00
2022-10-18T13:06:12.492Z,19.10
2022-10-18T13:08:43.503Z,19.00
2022-10-18T13:11:35.723Z,18.80
2022-10-18T13:14:30.552Z,18.70
2022-10-18T13:17:05.436Z,18.70
2022-10-18T13:19:47.204Z,18.70
2022-10-18T13:22:28.023Z,18.70
2022-10-18T13:25:04.895Z,18.80
2022-10-18T13:27:41.522Z,18.80
2022-10-18T13:30:34.031Z,18.90
2022-10-18T13:33:20.112Z,19.20
2022-10-18T13:35:55.169Z,19.70
2022-10-18T13:38:42.688Z,20.40
2022-10-18T13:41:13.546Z,20.90
2022-10-18T13:44:13.071Z,21.00
2022-10-18T13:47:15.850Z,21.00
2022-10-18T13:50:07.653Z,21.10
2022-10-18T13:52:54.863Z,21.10
2022-10-18T13:55:42.279Z,21.40
2022-10-18T13:58:19.961Z,21.60
2022-10-18T14:00:59.083Z,21.60
2022-10-18T14:03:56.907Z,21.60
2022-10-18T14:06:27.756Z,21.60
2022-10-18T14:09:09.445Z,21.50
2022-10-18T14:11:51.898Z,21.60
2022-10-18T14:14:26.480Z,21.70
2022-10-18T14:17:01.923Z,21.50
2022-10-18T14:19:35.475Z,21.20
2022-10-18T14:22:12.363Z,20.80
2022-10-18T14:24:44.818Z,20.30
2022-10-18T14:27:22.639Z,20.00
2022-10-18T14:30:07.386Z,19.70
2022-10-18T14:32:35.684Z,19.50
2022-10-18T14:37:54.632Z,19.40
2022-10-18T14:40:35.319Z,19.40
2022-10-18T14:43:07.354Z,19.30
2022-10-18T14:45:35.366Z,19.30
2022-10-18T14:48:15.466Z,19.20
2022-10-18T14:50:44.668Z,19.20
2022-10-18T14:53:17.631Z,19.20
2022-10-18T14:55:54.547Z,19.10
2022-10-18T14:58:24.259Z,19.10
2022-10-18T15:00:52.302Z,19.10
2022-10-18T15:03:21.016Z,19.10
2022-10-18T15:05:57.033Z,19.10
2022-10-18T15:08:26.581Z,19.00
2022-10-18T15:10:54.811Z,19.00
2022-10-18T15:13:25.190Z,18.90
2022-10-18T15:15:54.198Z,18.90
2022-10-18T15:18:24.981Z,18.90
2022-10-18T15:21:10.398Z,18.80
2022-10-18T15:23:38.432Z,18.80
2022-10-18T15:26:08.919Z,18.80
2022-10-18T15:28:49.634Z,18.80
2022-10-18T15:31:24.938Z,18.70
2022-10-18T15:33:53.773Z,18.70
2022-10-18T15:36:31.581Z,18.70
2022-10-18T15:39:08.748Z,18.70
2022-10-18T15:41:42.326Z,18.60
2022-10-18T15:44:24.445Z,18.60
2022-10-18T15:46:55.039Z,18.60
2022-10-18T15:49:58.181Z,18.50
2022-10-18T15:52:37.481Z,18.50
2022-10-18T15:55:48.211Z,18.50
2022-10-18T15:58:22.654Z,18.50
2022-10-18T16:00:57.160Z,18.50
2022-10-18T16:03:25.944Z,18.40
2022-10-18T16:05:58.869Z,18.40
2022-10-18T16:08:30.446Z,18.30
2022-10-18T16:10:58.747Z,18.30
2022-10-18T16:13:27.300Z,18.30
2022-10-18T16:15:56.693Z,18.30
2022-10-18T16:18:25.977Z,18.30
2022-10-18T16:20:54.428Z,18.30
2022-10-18T16:23:24.828Z,18.30
2022-10-18T16:25:53.071Z,18.20
2022-10-18T16:28:23.484Z,18.10
2022-10-18T16:30:58.663Z,18.00
2022-10-18T16:33:27.603Z,18.00
2022-10-18T16:35:55.774Z,18.00
2022-10-18T16:38:32.651Z,17.90
2022-10-18T16:41:04.471Z,17.80
2022-10-18T16:43:33.042Z,17.70
2022-10-18T16:46:03.510Z,17.60
2022-10-18T16:48:34.040Z,17.50
2022-10-18T16:51:02.881Z,17.40
2022-10-18T16:53:30.887Z,17.40
2022-10-18T16:56:00.558Z,17.30
2022-10-18T16:58:30.111Z,17.10
2022-10-18T17:00:58.991Z,17.10
2022-10-18T17:03:28.397Z,17.10
2022-10-18T17:05:56.848Z,17.10
2022-10-18T17:08:27.754Z,17.00
2022-10-18T17:10:57.921Z,17.00
2022-10-18T17:13:27.011Z,16.90
2022-10-18T17:15:55.517Z,16.90
2022-10-18T17:18:27.561Z,16.90
2022-10-18T17:20:57.094Z,16.90
2022-10-18T17:23:25.177Z,16.80
2022-10-18T17:26:04.964Z,16.80
2022-10-18T17:28:38.405Z,16.80
2022-10-18T17:31:08.294Z,16.60
2022-10-18T17:33:36.863Z,16.60
2022-10-18T17:36:06.729Z,16.60
2022-10-18T17:38:35.226Z,16.60
2022-10-18T17:41:07.338Z,16.60
2022-10-18T17:43:35.542Z,16.50
2022-10-18T17:46:03.988Z,16.50
2022-10-18T17:48:32.191Z,16.50
2022-10-18T17:51:00.248Z,16.50
2022-10-18T17:53:30.747Z,16.50
2022-10-18T17:56:02.436Z,16.40
2022-10-18T17:58:31.182Z,16.40
2022-10-18T18:01:08.613Z,16.30
2022-10-18T18:03:36.717Z,16.30
2022-10-18T18:06:13.928Z,16.30
2022-10-18T18:08:43.295Z,16.30
2022-10-18T18:11:11.319Z,16.30
2022-10-18T18:13:39.418Z,16.20
2022-10-18T18:16:12.913Z,16.10
2022-10-18T18:18:40.952Z,16.00
2022-10-18T18:21:09.008Z,16.00
2022-10-18T18:23:37.229Z,16.00
2022-10-18T18:26:07.009Z,16.00
2022-10-18T18:28:35.976Z,16.00
2022-10-18T18:31:07.270Z,15.80
2022-10-18T18:33:35.441Z,15.80
2022-10-18T18:36:04.853Z,15.80
2022-10-18T18:38:33.679Z,15.80
2022-10-18T18:41:07.832Z,15.70
2022-10-18T18:43:36.332Z,15.70
2022-10-18T18:46:04.928Z,15.70
2022-10-18T18:48:34.189Z,15.70
2022-10-18T18:51:03.108Z,15.60
2022-10-18T18:53:31.738Z,15.60
2022-10-18T18:56:04.024Z,15.50
2022-10-18T18:58:35.075Z,15.50
2022-10-18T19:01:08.015Z,15.50
2022-10-18T19:03:36.276Z,15.50
2022-10-18T19:06:06.453Z,15.50
2022-10-18T19:08:36.617Z,15.40
2022-10-18T19:11:08.126Z,15.40
2022-10-18T19:13:38.794Z,15.40
2022-10-18T19:16:20.865Z,15.40
2022-10-18T19:18:53.551Z,15.30
2022-10-18T19:21:22.116Z,15.30
2022-10-18T19:23:50.317Z,15.20
2022-10-18T19:26:31.973Z,15.10
2022-10-18T19:29:10.146Z,15.10
2022-10-18T19:31:39.068Z,15.10
2022-10-18T19:34:09.273Z,15.10
2022-10-18T19:36:38.353Z,15.00
2022-10-18T19:39:07.935Z,15.00
2022-10-18T19:41:36.022Z,14.90
2022-10-18T19:44:05.632Z,14.90
2022-10-18T19:46:33.761Z,14.90
2022-10-18T19:49:01.770Z,14.90
2022-10-18T19:51:29.816Z,14.90
2022-10-18T19:53:58.444Z,14.80
2022-10-18T19:56:27.806Z,14.80
2022-10-18T19:58:56.691Z,14.80
2022-10-18T20:01:27.426Z,14.80
2022-10-18T20:03:56.373Z,14.80
2022-10-18T20:06:24.897Z,14.80
2022-10-18T20:08:53.690Z,14.80
2022-10-18T20:11:23.559Z,14.70
2022-10-18T20:13:52.080Z,14.70
2022-10-18T20:16:26.943Z,14.70
2022-10-18T20:18:58.478Z,14.70
2022-10-18T20:21:27.586Z,14.70
2022-10-18T20:23:55.568Z,14.70
2022-10-18T20:26:25.388Z,14.70
2022-10-18T20:28:57.568Z,14.60
2022-10-18T20:31:28.054Z,14.60
2022-10-18T20:33:58.951Z,14.60
2022-10-18T20:36:27.586Z,14.60
2022-10-18T20:38:55.967Z,14.50
2022-10-18T20:41:25.864Z,14.50
2022-10-18T20:43:54.894Z,14.30
2022-10-18T20:46:23.834Z,14.30
2022-10-18T20:48:52.695Z,14.20
2022-10-18T20:51:22.491Z,14.20
2022-10-18T20:53:50.816Z,14.30
2022-10-18T20:56:21.312Z,14.30
2022-10-18T20:58:51.279Z,14.30
2022-10-18T21:01:21.124Z,14.20
2022-10-18T21:03:50.602Z,14.20
2022-10-18T21:06:22.005Z,14.20
2022-10-18T21:08:54.050Z,14.20
2022-10-18T21:11:22.089Z,14.20
2022-10-18T21:13:53.702Z,14.10
2022-10-18T21:16:23.126Z,14.10
2022-10-18T21:18:51.081Z,14.10
2022-10-18T21:21:22.745Z,14.10
2022-10-18T21:23:51.117Z,14.10
2022-10-18T21:26:21.953Z,14.00
2022-10-18T21:28:51.406Z,14.00
2022-10-18T21:31:21.372Z,14.00
2022-10-18T21:33:53.777Z,13.90
2022-10-18T21:36:24.222Z,13.90
2022-10-18T21:38:52.581Z,13.80
2022-10-18T21:41:22.017Z,13.80
2022-10-18T21:43:52.310Z,13.80
2022-10-18T21:46:22.120Z,13.70
2022-10-18T21:48:51.738Z,13.70
2022-10-18T21:51:23.136Z,13.70
2022-10-18T21:53:53.530Z,13.70
2022-10-18T21:56:23.246Z,13.70
2022-10-18T21:58:51.287Z,13.70
2022-10-18T22:01:21.482Z,13.70
2022-10-18T22:03:50.955Z,13.70
2022-10-18T22:06:19.673Z,13.60
2022-10-18T22:08:51.812Z,13.60
2022-10-18T22:11:22.153Z,13.50
2022-10-18T22:13:50.703Z,13.60
2022-10-18T22:16:19.036Z,13.60
2022-10-18T22:18:48.596Z,13.50
2022-10-18T22:21:19.255Z,13.50
2022-10-18T22:23:52.454Z,13.30
2022-10-18T22:26:22.202Z,13.20
2022-10-18T22:28:55.574Z,13.20
2022-10-18T22:31:25.838Z,13.10
2022-10-18T22:33:55.179Z,13.10
2022-10-18T22:36:23.913Z,13.10
2022-10-18T22:38:53.743Z,13.10
2022-10-18T22:41:22.003Z,13.10
2022-10-18T22:43:51.456Z,13.10
2022-10-18T22:46:19.958Z,13.00
2022-10-18T22:48:48.148Z,13.10
2022-10-18T22:51:16.452Z,13.10
2022-10-18T22:53:45.021Z,13.10
2022-10-18T22:56:16.557Z,13.10
2022-10-18T22:58:44.671Z,13.00
2022-10-18T23:01:14.918Z,12.90
2022-10-18T23:03:43.550Z,12.90
2022-10-18T23:06:23.560Z,12.90
2022-10-18T23:08:52.643Z,12.90
2022-10-18T23:11:22.572Z,12.90
2022-10-18T23:13:50.670Z,12.90
2022-10-18T23:16:19.296Z,12.80
2022-10-18T23:18:51.523Z,12.90
2022-10-18T23:21:19.922Z,12.90
2022-10-18T23:23:48.193Z,12.90
2022-10-18T23:26:19.080Z,12.90
2022-10-18T23:28:50.283Z,12.90
2022-10-18T23:31:20.977Z,12.90
2022-10-18T23:33:51.163Z,12.90
2022-10-18T23:36:19.543Z,12.90
2022-10-18T23:38:47.533Z,12.90
2022-10-18T23:41:16.602Z,12.80
2022-10-18T23:43:45.397Z,12.80
2022-10-18T23:46:16.224Z,12.80
2022-10-18T23:48:44.534Z,12.60
2022-10-18T23:51:13.080Z,12.50
2022-10-18T23:53:41.178Z,12.40
2022-10-18T23:56:10.924Z,12.40
2022-10-18T23:58:39.758Z,12.30
